createdAt,value
2022-09-17T00:00:50.680Z,69.60
2022-09-17T00:03:17.817Z,69.80
2022-09-17T00:05:44.614Z,70.00
2022-09-17T00:08:14.795Z,70.20
2022-09-17T00:10:43.791Z,70.30
2022-09-17T00:13:11.659Z,70.40
2022-09-17T00:15:46.290Z,70.50
2022-09-17T00:18:14.455Z,70.30
2022-09-17T00:20:46.910Z,70.20
2022-09-17T00:23:14.824Z,69.90
2022-09-17T00:25:42.631Z,69.80
2022-09-17T00:28:09.468Z,69.70
2022-09-17T00:30:38.872Z,69.70
2022-09-17T00:33:05.469Z,69.80
2022-09-17T00:35:32.184Z,69.80
2022-09-17T00:37:58.775Z,69.80
2022-09-17T00:40:25.477Z,69.80
2022-09-17T00:42:53.302Z,69.90
2022-09-17T00:45:20.596Z,70.00
2022-09-17T00:47:57.147Z,70.10
2022-09-17T00:50:29.679Z,70.10
2022-09-17T00:53:01.164Z,70.10
2022-09-17T00:55:31.764Z,70.10
2022-09-17T00:58:01.342Z,70.10
2022-09-17T01:00:29.628Z,70.10
2022-09-17T01:02:56.547Z,70.10
2022-09-17T01:05:31.246Z,70.10
2022-09-17T01:08:21.864Z,69.90
2022-09-17T01:11:12.478Z,69.90
2022-09-17T01:13:50.554Z,69.90
2022-09-17T01:16:26.192Z,69.80
2022-09-17T01:19:25.045Z,69.70
2022-09-17T01:22:07.343Z,69.60
2022-09-17T01:24:52.784Z,69.60
2022-09-17T01:27:48.757Z,69.60
2022-09-17T01:30:48.739Z,69.60
2022-09-17T01:33:37.407Z,69.50
2022-09-17T01:36:31.798Z,69.90
2022-09-17T01:39:22.317Z,69.30
2022-09-17T01:41:55.523Z,69.10
2022-09-17T01:44:31.125Z,68.90
2022-09-17T01:47:45.661Z,68.50
2022-09-17T01:50:19.803Z,68.20
2022-09-17T01:52:49.923Z,68.10
2022-09-17T01:55:18.731Z,67.80
2022-09-17T01:57:53.685Z,67.60
2022-09-17T02:00:22.024Z,67.40
2022-09-17T02:02:56.790Z,67.30
2022-09-17T02:05:29.463Z,67.00
2022-09-17T02:08:06.441Z,67.00
2022-09-17T02:10:39.000Z,66.90
2022-09-17T02:13:15.147Z,66.90
2022-09-17T02:15:47.293Z,66.80
2022-09-17T02:18:38.852Z,66.80
2022-09-17T02:21:15.505Z,66.80
2022-09-17T02:23:59.148Z,66.80
2022-09-17T02:26:27.660Z,66.80
2022-09-17T02:28:59.124Z,66.80
2022-09-17T02:31:25.845Z,66.80
2022-09-17T02:33:57.063Z,66.80
2022-09-17T02:36:24.954Z,67.00
2022-09-17T02:38:59.007Z,67.00
2022-09-17T02:41:36.131Z,67.20
2022-09-17T02:44:24.799Z,67.20
2022-09-17T02:47:13.306Z,67.10
2022-09-17T02:50:08.177Z,67.20
2022-09-17T02:53:04.695Z,67.30
2022-09-17T02:55:58.625Z,67.40
2022-09-17T02:58:32.485Z,67.50
2022-09-17T03:01:04.802Z,67.90
2022-09-17T03:03:41.210Z,68.10
2022-09-17T03:06:07.815Z,68.40
2022-09-17T03:08:41.075Z,68.60
2022-09-17T03:11:09.145Z,68.90
2022-09-17T03:13:36.265Z,69.20
2022-09-17T03:16:04.303Z,69.40
2022-09-17T03:18:31.506Z,69.60
2022-09-17T03:20:58.410Z,69.80
2022-09-17T03:23:25.424Z,69.90
2022-09-17T03:25:52.087Z,69.60
2022-09-17T03:28:18.729Z,69.90
2022-09-17T03:30:46.372Z,70.00
2022-09-17T03:33:13.296Z,70.00
2022-09-17T03:35:43.530Z,70.10
2022-09-17T03:38:10.599Z,70.20
2022-09-17T03:40:37.349Z,70.10
2022-09-17T03:43:04.643Z,69.80
2022-09-17T03:45:31.330Z,70.00
2022-09-17T03:47:58.104Z,70.20
2022-09-17T03:50:24.762Z,70.30
2022-09-17T03:52:51.484Z,70.40
2022-09-17T03:55:18.089Z,70.50
2022-09-17T03:57:44.727Z,70.60
2022-09-17T04:00:12.690Z,70.80
2022-09-17T04:02:39.695Z,71.10
2022-09-17T04:05:06.659Z,71.20
2022-09-17T04:07:33.268Z,70.80
2022-09-17T04:09:59.982Z,71.00
2022-09-17T04:12:26.637Z,71.00
2022-09-17T04:14:53.256Z,70.80
2022-09-17T04:17:19.929Z,70.60
2022-09-17T04:19:46.573Z,70.30
2022-09-17T04:22:13.163Z,70.10
2022-09-17T04:24:39.772Z,69.90
2022-09-17T04:27:06.467Z,69.60
2022-09-17T04:29:33.111Z,69.60
2022-09-17T04:31:59.793Z,69.40
2022-09-17T04:34:26.432Z,69.40
2022-09-17T04:36:53.107Z,69.30
2022-09-17T04:39:19.736Z,69.40
2022-09-17T04:41:47.161Z,69.30
2022-09-17T04:44:13.930Z,69.30
2022-09-17T04:46:40.666Z,69.30
2022-09-17T04:49:08.696Z,69.30
2022-09-17T04:51:35.417Z,69.20
2022-09-17T04:54:02.063Z,69.30
2022-09-17T04:56:28.733Z,69.20
2022-09-17T04:58:55.420Z,69.20
2022-09-17T05:01:22.083Z,69.30
2022-09-17T05:03:48.719Z,69.30
2022-09-17T05:06:15.425Z,69.20
2022-09-17T05:08:42.083Z,69.20
2022-09-17T05:11:08.743Z,69.20
2022-09-17T05:13:35.422Z,69.20
2022-09-17T05:16:02.343Z,69.10
2022-09-17T05:18:29.027Z,69.10
2022-09-17T05:20:55.668Z,69.00
2022-09-17T05:23:22.296Z,69.00
2022-09-17T05:25:49.109Z,69.00
2022-09-17T05:28:15.759Z,69.00
2022-09-17T05:30:42.765Z,68.90
2022-09-17T05:33:09.785Z,68.90
2022-09-17T05:35:36.579Z,68.80
2022-09-17T05:38:05.791Z,68.80
2022-09-17T05:40:35.721Z,68.80
2022-09-17T05:43:04.555Z,68.80
2022-09-17T05:45:33.513Z,68.90
2022-09-17T05:48:01.666Z,69.10
2022-09-17T05:50:29.911Z,69.20
2022-09-17T05:52:56.900Z,69.30
2022-09-17T05:55:24.012Z,69.40
2022-09-17T05:57:51.643Z,69.70
2022-09-17T06:00:18.877Z,69.90
2022-09-17T06:02:45.941Z,70.20
2022-09-17T06:05:12.639Z,70.60
2022-09-17T06:07:39.556Z,70.30
2022-09-17T06:10:08.218Z,71.10
2022-09-17T06:12:37.940Z,71.30
2022-09-17T06:15:05.289Z,71.50
2022-09-17T06:17:36.176Z,71.70
2022-09-17T06:20:04.925Z,71.70
2022-09-17T06:22:31.568Z,71.80
2022-09-17T06:24:59.687Z,72.20
2022-09-17T06:27:32.035Z,72.20
2022-09-17T06:29:58.823Z,72.20
2022-09-17T06:32:25.525Z,73.10
2022-09-17T06:34:52.463Z,72.10
2022-09-17T06:37:19.092Z,70.00
2022-09-17T06:39:45.787Z,69.40
2022-09-17T06:42:12.462Z,68.70
2022-09-17T06:44:39.981Z,68.10
2022-09-17T06:47:07.863Z,67.80
2022-09-17T06:49:34.482Z,67.50
2022-09-17T06:52:01.656Z,67.60
2022-09-17T06:54:28.269Z,67.90
2022-09-17T06:56:54.952Z,68.50
2022-09-17T06:59:21.601Z,68.80
2022-09-17T07:01:48.484Z,69.20
2022-09-17T07:04:17.349Z,69.60
2022-09-17T07:06:44.872Z,69.40
2022-09-17T07:09:12.680Z,68.90
2022-09-17T07:11:39.780Z,68.30
2022-09-17T07:14:06.911Z,67.60
2022-09-17T07:16:35.072Z,67.40
2022-09-17T07:19:03.366Z,67.40
2022-09-17T07:21:29.992Z,67.80
2022-09-17T07:23:56.688Z,67.90
2022-09-17T07:26:23.316Z,68.10
2022-09-17T07:28:50.001Z,68.30
2022-09-17T07:31:17.045Z,68.60
2022-09-17T07:33:44.205Z,68.50
2022-09-17T07:36:12.807Z,68.60
2022-09-17T07:38:39.609Z,68.40
2022-09-17T07:41:17.249Z,67.90
2022-09-17T07:43:44.331Z,68.30
2022-09-17T07:46:17.076Z,67.70
2022-09-17T07:48:43.913Z,67.50
2022-09-17T07:51:22.380Z,67.40
2022-09-17T07:53:53.528Z,67.40
2022-09-17T07:56:20.576Z,66.80
2022-09-17T07:58:47.553Z,66.80
2022-09-17T08:01:17.669Z,66.70
2022-09-17T08:03:49.412Z,66.90
2022-09-17T08:06:19.664Z,66.90
2022-09-17T08:08:46.738Z,67.20
2022-09-17T08:11:38.163Z,67.10
2022-09-17T08:14:05.529Z,66.80
2022-09-17T08:16:32.233Z,66.50
2022-09-17T08:18:58.910Z,66.40
2022-09-17T08:21:25.624Z,66.50
2022-09-17T08:23:52.404Z,65.80
2022-09-17T08:26:22.723Z,65.90
2022-09-17T08:28:58.755Z,66.30
2022-09-17T08:31:28.211Z,66.30
2022-09-17T08:33:54.959Z,66.20
2022-09-17T08:36:22.789Z,66.50
2022-09-17T08:38:53.743Z,66.90
2022-09-17T08:41:42.208Z,67.30
2022-09-17T08:44:14.357Z,67.00
2022-09-17T08:46:48.165Z,66.50
2022-09-17T08:49:44.495Z,65.80
2022-09-17T08:52:38.268Z,66.10
2022-09-17T08:55:29.072Z,65.60
2022-09-17T08:58:05.347Z,66.20
2022-09-17T09:00:42.680Z,65.40
2022-09-17T09:03:15.076Z,65.30
2022-09-17T09:05:50.023Z,65.10
2022-09-17T09:08:47.609Z,64.80
2022-09-17T09:11:17.789Z,64.40
2022-09-17T09:13:51.429Z,64.20
2022-09-17T09:16:28.895Z,64.00
2022-09-17T09:19:01.019Z,63.60
2022-09-17T09:21:30.425Z,63.10
2022-09-17T09:24:01.514Z,62.80
2022-09-17T09:26:44.836Z,62.50
2022-09-17T09:29:43.752Z,61.80
2022-09-17T09:32:58.012Z,62.00
2022-09-17T09:35:28.506Z,62.40
2022-09-17T09:38:23.233Z,62.30
2022-09-17T09:41:02.477Z,62.40
2022-09-17T09:44:05.022Z,62.70
2022-09-17T09:46:59.489Z,63.60
2022-09-17T09:49:46.434Z,63.00
2022-09-17T09:52:36.939Z,63.20
2022-09-17T09:55:43.995Z,63.00
2022-09-17T09:58:29.339Z,63.00
2022-09-17T10:00:55.940Z,64.50
2022-09-17T10:03:26.463Z,66.20
2022-09-17T10:06:08.158Z,67.50
2022-09-17T10:08:40.126Z,68.60
2022-09-17T10:11:19.339Z,70.80
2022-09-17T10:13:46.007Z,71.70
2022-09-17T10:16:29.167Z,72.10
2022-09-17T10:19:07.769Z,72.10
2022-09-17T10:21:39.652Z,72.30
2022-09-17T10:24:15.268Z,73.60
2022-09-17T10:26:41.954Z,74.20
2022-09-17T10:29:16.484Z,74.20
2022-09-17T10:31:48.683Z,72.70
2022-09-17T10:34:23.659Z,71.40
2022-09-17T10:36:50.611Z,71.40
2022-09-17T10:39:32.755Z,70.50
2022-09-17T10:42:02.312Z,70.20
2022-09-17T10:44:34.673Z,70.20
2022-09-17T10:47:06.255Z,69.10
2022-09-17T10:49:47.896Z,67.60
2022-09-17T10:52:21.331Z,67.20
2022-09-17T10:55:01.352Z,67.30
2022-09-17T10:57:42.042Z,66.80
2022-09-17T11:00:14.659Z,67.00
2022-09-17T11:03:06.083Z,66.60
2022-09-17T11:06:14.452Z,66.70
2022-09-17T11:09:09.819Z,66.20
2022-09-17T11:11:58.421Z,66.10
2022-09-17T11:15:24.035Z,66.10
2022-09-17T11:18:02.985Z,66.60
2022-09-17T11:20:47.249Z,65.90
2022-09-17T11:23:37.997Z,64.60
2022-09-17T11:26:29.477Z,64.20
2022-09-17T11:29:35.296Z,62.90
2022-09-17T11:32:25.585Z,63.60
2022-09-17T11:35:09.884Z,62.60
2022-09-17T11:37:49.103Z,60.90
2022-09-17T11:40:25.451Z,60.20
2022-09-17T11:42:58.954Z,58.30
2022-09-17T11:45:39.443Z,58.00
2022-09-17T11:48:17.049Z,57.50
2022-09-17T11:50:57.059Z,58.00
2022-09-17T11:53:35.756Z,56.40
2022-09-17T11:56:20.146Z,55.20
2022-09-17T11:59:04.946Z,54.70
2022-09-17T12:01:38.095Z,56.20
2022-09-17T12:04:38.218Z,57.10
2022-09-17T12:07:22.378Z,58.40
2022-09-17T12:09:55.298Z,61.00
2022-09-17T12:12:48.317Z,62.40
2022-09-17T12:15:20.075Z,64.10
2022-09-17T12:18:31.732Z,64.90
2022-09-17T12:21:01.872Z,65.40
2022-09-17T12:23:38.543Z,67.30
2022-09-17T12:26:13.647Z,65.60
2022-09-17T12:28:56.624Z,62.80
2022-09-17T12:31:42.648Z,59.40
2022-09-17T12:34:30.559Z,57.50
2022-09-17T12:37:19.030Z,57.10
2022-09-17T12:40:27.574Z,59.50
2022-09-17T12:42:54.137Z,60.30
2022-09-17T12:45:29.133Z,58.50
2022-09-17T12:48:09.901Z,57.60
2022-09-17T12:50:39.374Z,53.30
2022-09-17T12:53:15.484Z,49.80
2022-09-17T12:55:46.469Z,49.30
2022-09-17T12:58:31.887Z,50.70
2022-09-17T13:01:01.770Z,46.90
2022-09-17T13:03:44.618Z,46.60
2022-09-17T13:06:54.701Z,48.60
2022-09-17T13:09:38.104Z,48.40
2022-09-17T13:12:25.967Z,47.00
2022-09-17T13:15:22.933Z,46.40
2022-09-17T13:18:19.992Z,46.50
2022-09-17T13:21:02.781Z,44.50
2022-09-17T13:23:40.322Z,43.60
2022-09-17T13:26:08.974Z,45.00
2022-09-17T13:28:44.650Z,46.90
2022-09-17T13:31:19.882Z,45.00
2022-09-17T13:33:59.499Z,46.40
2022-09-17T13:36:51.936Z,44.30
2022-09-17T13:39:40.428Z,43.10
2022-09-17T13:42:09.421Z,41.20
2022-09-17T13:44:40.043Z,39.20
2022-09-17T13:47:47.716Z,38.00
2022-09-17T13:50:34.705Z,37.40
2022-09-17T13:53:14.190Z,40.20
2022-09-17T13:55:49.602Z,42.30
2022-09-17T13:58:19.259Z,41.50
2022-09-17T14:00:59.038Z,39.30
2022-09-17T14:03:33.455Z,37.50
2022-09-17T14:06:08.959Z,37.40
2022-09-17T14:08:35.543Z,38.80
2022-09-17T14:11:04.595Z,39.40
2022-09-17T14:13:42.314Z,40.80
2022-09-17T14:16:37.268Z,42.00
2022-09-17T14:19:16.755Z,43.30
2022-09-17T14:22:00.547Z,44.60
2022-09-17T14:24:42.248Z,46.30
2022-09-17T14:27:17.375Z,46.70
2022-09-17T14:30:04.620Z,46.60
2022-09-17T14:32:59.087Z,46.80
2022-09-17T14:35:35.544Z,46.50
2022-09-17T14:38:15.115Z,46.10
2022-09-17T14:40:46.659Z,46.50
2022-09-17T14:43:25.218Z,46.80
2022-09-17T14:45:53.483Z,47.00
2022-09-17T14:48:32.073Z,46.10
2022-09-17T14:51:17.292Z,45.30
2022-09-17T14:53:48.895Z,42.70
2022-09-17T14:56:21.983Z,42.60
2022-09-17T14:58:54.485Z,43.00
2022-09-17T15:01:27.381Z,42.50
2022-09-17T15:04:12.386Z,42.20
2022-09-17T15:06:40.311Z,42.60
2022-09-17T15:09:18.790Z,42.10
2022-09-17T15:11:50.032Z,42.50
2022-09-17T15:14:21.074Z,41.80
2022-09-17T15:16:54.159Z,41.20
2022-09-17T15:19:45.036Z,39.80
2022-09-17T15:22:25.155Z,39.60
2022-09-17T15:25:05.722Z,37.90
2022-09-17T15:27:45.233Z,38.50
2022-09-17T15:30:21.153Z,38.10
2022-09-17T15:32:53.951Z,38.80
2022-09-17T15:35:31.903Z,40.70
2022-09-17T15:38:23.735Z,43.00
2022-09-17T15:40:51.562Z,44.90
2022-09-17T15:43:30.135Z,42.70
2022-09-17T15:46:00.607Z,41.70
2022-09-17T15:48:30.364Z,39.30
2022-09-17T15:50:59.704Z,37.50
2022-09-17T15:53:28.900Z,36.30
2022-09-17T15:56:13.078Z,34.70
2022-09-17T15:58:42.556Z,33.80
2022-09-17T16:01:18.249Z,33.20
2022-09-17T16:03:44.889Z,31.90
2022-09-17T16:06:24.963Z,32.50
2022-09-17T16:09:02.743Z,33.70
2022-09-17T16:11:32.868Z,35.90
2022-09-17T16:14:01.148Z,37.90
2022-09-17T16:16:34.484Z,39.50
2022-09-17T16:19:01.703Z,40.40
2022-09-17T16:21:28.989Z,41.50
2022-09-17T16:23:57.986Z,41.70
2022-09-17T16:26:35.483Z,41.50
2022-09-17T16:29:17.065Z,41.60
2022-09-17T16:31:44.767Z,41.60
2022-09-17T16:34:11.543Z,41.80
2022-09-17T16:36:38.268Z,42.20
2022-09-17T16:39:05.222Z,42.50
2022-09-17T16:41:31.862Z,43.20
2022-09-17T16:43:58.538Z,43.90
2022-09-17T16:46:25.452Z,43.90
2022-09-17T16:48:52.225Z,44.60
2022-09-17T16:51:19.091Z,45.20
2022-09-17T16:53:46.084Z,45.70
2022-09-17T16:56:14.607Z,46.80
2022-09-17T16:58:41.710Z,47.70
2022-09-17T17:01:12.394Z,48.50
2022-09-17T17:03:39.398Z,49.60
2022-09-17T17:06:06.465Z,50.40
2022-09-17T17:08:33.577Z,51.00
2022-09-17T17:11:00.905Z,51.60
2022-09-17T17:13:30.441Z,52.10
2022-09-17T17:15:57.429Z,52.40
2022-09-17T17:18:24.583Z,52.90
2022-09-17T17:20:51.476Z,53.40
2022-09-17T17:23:18.147Z,53.70
2022-09-17T17:25:44.863Z,54.20
2022-09-17T17:28:11.496Z,54.40
2022-09-17T17:30:38.368Z,54.10
2022-09-17T17:33:05.353Z,55.20
2022-09-17T17:35:32.407Z,55.60
2022-09-17T17:37:59.225Z,55.90
2022-09-17T17:40:26.618Z,56.40
2022-09-17T17:42:54.436Z,56.10
2022-09-17T17:45:21.676Z,57.40
2022-09-17T17:47:48.555Z,58.50
2022-09-17T17:50:15.815Z,59.40
2022-09-17T17:52:47.642Z,59.00
2022-09-17T17:55:16.076Z,60.40
2022-09-17T17:57:42.755Z,60.90
2022-09-17T18:00:11.591Z,61.30
2022-09-17T18:02:41.952Z,61.70
2022-09-17T18:05:09.380Z,62.00
2022-09-17T18:07:36.040Z,62.40
2022-09-17T18:10:02.845Z,62.90
2022-09-17T18:12:29.526Z,63.40
2022-09-17T18:14:56.259Z,63.70
2022-09-17T18:17:22.882Z,63.90
2022-09-17T18:19:51.281Z,64.60
2022-09-17T18:22:18.436Z,65.30
2022-09-17T18:24:45.010Z,66.40
2022-09-17T18:27:11.580Z,67.30
2022-09-17T18:29:39.102Z,67.50
2022-09-17T18:32:05.748Z,68.40
2022-09-17T18:34:32.508Z,68.90
2022-09-17T18:36:59.168Z,69.30
2022-09-17T18:42:12.738Z,69.90
2022-09-17T18:44:39.331Z,70.10
2022-09-17T18:47:05.992Z,70.30
2022-09-17T18:49:32.619Z,71.20
2022-09-17T18:51:59.218Z,70.70
2022-09-17T18:54:25.847Z,70.60
2022-09-17T18:56:52.523Z,71.00
2022-09-17T18:59:19.159Z,71.20
2022-09-17T19:01:45.801Z,71.30
2022-09-17T19:04:12.602Z,71.30
2022-09-17T19:06:39.392Z,71.30
2022-09-17T19:09:06.253Z,71.30
2022-09-17T19:11:35.582Z,71.40
2022-09-17T19:14:02.260Z,71.40
2022-09-17T19:16:28.946Z,71.60
2022-09-17T19:18:55.737Z,71.80
2022-09-17T19:21:22.365Z,72.00
2022-09-17T19:23:51.091Z,72.00
2022-09-17T19:26:20.292Z,72.20
2022-09-17T19:28:47.158Z,72.20
2022-09-17T19:31:15.707Z,72.00
2022-09-17T19:33:43.288Z,71.20
2022-09-17T19:36:14.888Z,72.00
2022-09-17T19:38:41.895Z,72.00
2022-09-17T19:41:14.889Z,72.40
2022-09-17T19:43:41.940Z,72.50
2022-09-17T19:46:12.337Z,72.40
2022-09-17T19:48:53.178Z,72.50
2022-09-17T19:51:21.331Z,72.50
2022-09-17T19:53:48.031Z,72.80
2022-09-17T19:56:17.018Z,73.10
2022-09-17T19:58:44.250Z,73.10
2022-09-17T20:01:11.090Z,73.10
2022-09-17T20:03:43.131Z,73.00
2022-09-17T20:06:12.319Z,72.90
2022-09-17T20:08:47.007Z,72.70
2022-09-17T20:11:15.643Z,72.60
2022-09-17T20:13:42.528Z,72.60
2022-09-17T20:16:12.551Z,72.70
2022-09-17T20:18:39.591Z,72.70
2022-09-17T20:21:08.438Z,72.60
2022-09-17T20:23:35.142Z,72.60
2022-09-17T20:26:01.984Z,72.70
2022-09-17T20:28:28.588Z,72.80
2022-09-17T20:31:07.252Z,72.90
2022-09-17T20:33:34.526Z,72.80
2022-09-17T20:36:03.109Z,72.80
2022-09-17T20:41:17.171Z,72.60
2022-09-17T20:43:46.463Z,72.40
2022-09-17T20:46:13.744Z,72.40
2022-09-17T20:48:41.098Z,72.40
2022-09-17T20:51:28.423Z,72.30
2022-09-17T20:53:57.123Z,72.20
2022-09-17T20:56:27.235Z,72.50
2022-09-17T20:59:02.763Z,72.60
2022-09-17T21:01:34.382Z,72.70
2022-09-17T21:04:02.247Z,72.80
2022-09-17T21:06:34.647Z,73.00
2022-09-17T21:09:01.516Z,73.00
2022-09-17T21:11:28.635Z,72.90
2022-09-17T21:13:55.370Z,72.40
2022-09-17T21:16:22.093Z,72.90
2022-09-17T21:18:49.002Z,72.90
2022-09-17T21:21:17.719Z,72.90
2022-09-17T21:23:44.725Z,72.80
2022-09-17T21:26:13.038Z,72.70
2022-09-17T21:28:42.443Z,72.60
2022-09-17T21:31:14.193Z,73.10
2022-09-17T21:33:42.106Z,72.40
2022-09-17T21:36:11.519Z,72.20
2022-09-17T21:38:38.595Z,72.30
2022-09-17T21:41:09.785Z,72.50
2022-09-17T21:43:36.747Z,72.70
2022-09-17T21:46:07.786Z,73.00
2022-09-17T21:48:37.042Z,72.50
2022-09-17T21:51:09.164Z,73.20
2022-09-17T21:53:35.841Z,73.30
2022-09-17T21:56:07.996Z,73.40
2022-09-17T21:58:35.095Z,73.40
2022-09-17T22:01:12.264Z,73.40
2022-09-17T22:03:40.007Z,73.30
2022-09-17T22:06:15.519Z,73.30
2022-09-17T22:08:42.405Z,73.30
2022-09-17T22:11:15.591Z,73.20
2022-09-17T22:13:50.235Z,73.20
2022-09-17T22:16:16.912Z,73.20
2022-09-17T22:18:47.141Z,73.20
2022-09-17T22:21:19.118Z,73.30
2022-09-17T22:23:45.746Z,73.40
2022-09-17T22:26:12.378Z,73.40
2022-09-17T22:28:39.668Z,73.50
2022-09-17T22:31:09.696Z,73.70
2022-09-17T22:33:38.806Z,73.90
2022-09-17T22:36:11.509Z,74.10
2022-09-17T22:38:38.648Z,74.10
2022-09-17T22:41:13.052Z,74.40
2022-09-17T22:43:39.975Z,74.60
2022-09-17T22:46:21.471Z,74.70
2022-09-17T22:48:48.429Z,74.70
2022-09-17T22:51:16.076Z,75.50
2022-09-17T22:53:43.531Z,75.00
2022-09-17T22:56:15.737Z,75.20
2022-09-17T22:58:43.490Z,75.30
2022-09-17T23:01:12.773Z,75.50
2022-09-17T23:03:40.741Z,75.50
2022-09-17T23:06:13.122Z,75.50
2022-09-17T23:08:40.595Z,75.50
2022-09-17T23:11:14.893Z,75.40
2022-09-17T23:13:41.489Z,75.60
2022-09-17T23:16:09.462Z,75.70
2022-09-17T23:18:37.028Z,75.80
2022-09-17T23:21:13.096Z,76.50
2022-09-17T23:23:41.540Z,76.20
2022-09-17T23:26:11.323Z,76.70
2022-09-17T23:28:38.531Z,77.40
2022-09-17T23:31:08.238Z,77.70
2022-09-17T23:33:35.368Z,78.40
2022-09-17T23:36:06.785Z,78.10
2022-09-17T23:38:34.676Z,78.20
2022-09-17T23:41:08.216Z,78.40
2022-09-17T23:43:35.085Z,78.70
2022-09-17T23:46:01.857Z,78.70
2022-09-17T23:48:28.532Z,78.70
2022-09-17T23:50:55.454Z,78.70
2022-09-17T23:53:22.201Z,78.60
2022-09-17T23:55:49.299Z,78.80
2022-09-17T23:58:16.440Z,79.10
